sensor_id;sensor_type;location;lat;lon;timestamp;pressure;altitude;pressure_sealevel;temperature;humidity
77360;BME280;66426;51.454;7.266;2023-04-30T00:00:31;100811.59;;;8.31;80.83
77360;BME280;66426;51.454;7.266;2023-04-30T00:01:31;100814.25;;;8.31;80.42
77360;BME280;66426;51.454;7.266;2023-04-30T00:02:32;100810.44;;;8.38;80.10
77360;BME280;66426;51.454;7.266;2023-04-30T00:03:33;100814.31;;;8.30;80.12
77360;BME280;66426;51.454;7.266;2023-04-30T00:04:34;100810.28;;;8.15;80.50
77360;BME280;66426;51.454;7.266;2023-04-30T00:05:35;100809.28;;;8.19;80.47
77360;BME280;66426;51.454;7.266;2023-04-30T00:06:37;100817.09;;;8.27;80.23
77360;BME280;66426;51.454;7.266;2023-04-30T00:07:37;100817.94;;;8.29;80.02
77360;BME280;66426;51.454;7.266;2023-04-30T00:08:41;100815.53;;;8.18;79.65
77360;BME280;66426;51.454;7.266;2023-04-30T00:09:42;100816.09;;;7.99;80.73
77360;BME280;66426;51.454;7.266;2023-04-30T00:10:43;100817.69;;;8.07;80.29
77360;BME280;66426;51.454;7.266;2023-04-30T00:11:46;100818.22;;;8.18;80.25
77360;BME280;66426;51.454;7.266;2023-04-30T00:12:47;100814.78;;;8.14;80.10
77360;BME280;66426;51.454;7.266;2023-04-30T00:13:48;100812.34;;;8.05;80.22
77360;BME280;66426;51.454;7.266;2023-04-30T00:14:49;100815.25;;;7.99;80.48
77360;BME280;66426;51.454;7.266;2023-04-30T00:15:50;100814.88;;;8.11;80.31
77360;BME280;66426;51.454;7.266;2023-04-30T00:16:51;100812.94;;;8.16;80.00
77360;BME280;66426;51.454;7.266;2023-04-30T00:17:52;100820.50;;;8.02;80.42
77360;BME280;66426;51.454;7.266;2023-04-30T00:18:53;100820.59;;;7.99;80.50
77360;BME280;66426;51.454;7.266;2023-04-30T00:19:54;100817.47;;;8.14;80.09
77360;BME280;66426;51.454;7.266;2023-04-30T00:20:55;100821.72;;;8.21;79.81
77360;BME280;66426;51.454;7.266;2023-04-30T00:21:56;100821.22;;;8.09;80.32
77360;BME280;66426;51.454;7.266;2023-04-30T00:22:57;100820.03;;;7.88;81.03
77360;BME280;66426;51.454;7.266;2023-04-30T00:23:58;100821.78;;;7.89;80.76
77360;BME280;66426;51.454;7.266;2023-04-30T00:25:00;100825.22;;;7.94;80.79
77360;BME280;66426;51.454;7.266;2023-04-30T00:26:01;100825.16;;;7.95;80.45
77360;BME280;66426;51.454;7.266;2023-04-30T00:27:03;100826.09;;;7.94;80.37
77360;BME280;66426;51.454;7.266;2023-04-30T00:28:04;100825.44;;;7.86;80.69
77360;BME280;66426;51.454;7.266;2023-04-30T00:29:05;100823.78;;;7.82;81.07
77360;BME280;66426;51.454;7.266;2023-04-30T00:30:07;100830.22;;;7.75;80.69
77360;BME280;66426;51.454;7.266;2023-04-30T00:31:08;100832.06;;;7.73;81.28
77360;BME280;66426;51.454;7.266;2023-04-30T00:32:08;100825.78;;;7.74;81.34
77360;BME280;66426;51.454;7.266;2023-04-30T00:33:09;100827.66;;;7.70;81.59
77360;BME280;66426;51.454;7.266;2023-04-30T00:34:10;100828.38;;;7.77;80.90
77360;BME280;66426;51.454;7.266;2023-04-30T00:35:11;100832.88;;;7.76;81.11
77360;BME280;66426;51.454;7.266;2023-04-30T00:36:12;100827.53;;;7.75;81.23
77360;BME280;66426;51.454;7.266;2023-04-30T00:37:13;100832.69;;;7.83;81.10
77360;BME280;66426;51.454;7.266;2023-04-30T00:38:14;100829.28;;;7.76;80.99
77360;BME280;66426;51.454;7.266;2023-04-30T00:39:15;100829.47;;;7.70;81.53
77360;BME280;66426;51.454;7.266;2023-04-30T00:40:16;100829.28;;;7.76;81.22
77360;BME280;66426;51.454;7.266;2023-04-30T00:41:17;100822.97;;;7.78;81.05
77360;BME280;66426;51.454;7.266;2023-04-30T00:42:20;100828.31;;;7.78;80.71
77360;BME280;66426;51.454;7.266;2023-04-30T00:43:20;100828.25;;;7.82;81.10
77360;BME280;66426;51.454;7.266;2023-04-30T00:44:21;100826.56;;;7.77;81.10
77360;BME280;66426;51.454;7.266;2023-04-30T00:45:22;100830.53;;;7.64;81.44
77360;BME280;66426;51.454;7.266;2023-04-30T00:46:23;100828.41;;;7.75;81.15
77360;BME280;66426;51.454;7.266;2023-04-30T00:47:24;100827.63;;;7.72;80.96
77360;BME280;66426;51.454;7.266;2023-04-30T00:48:25;100825.84;;;7.71;81.00
77360;BME280;66426;51.454;7.266;2023-04-30T00:49:27;100824.09;;;7.70;81.20
77360;BME280;66426;51.454;7.266;2023-04-30T00:50:28;100827.66;;;7.70;81.20
77360;BME280;66426;51.454;7.266;2023-04-30T00:51:30;100829.44;;;7.71;81.35
77360;BME280;66426;51.454;7.266;2023-04-30T00:52:31;100827.63;;;7.72;81.26
77360;BME280;66426;51.454;7.266;2023-04-30T00:53:33;100823.16;;;7.72;81.04
77360;BME280;66426;51.454;7.266;2023-04-30T00:54:34;100823.25;;;7.69;81.45
77360;BME280;66426;51.454;7.266;2023-04-30T00:55:36;100833.13;;;7.67;81.52
77360;BME280;66426;51.454;7.266;2023-04-30T00:56:36;100826.91;;;7.65;81.30
77360;BME280;66426;51.454;7.266;2023-04-30T00:57:39;100822.97;;;7.46;82.18
77360;BME280;66426;51.454;7.266;2023-04-30T00:58:44;100827.69;;;7.36;82.58
77360;BME280;66426;51.454;7.266;2023-04-30T00:59:45;100831.66;;;7.55;82.12
77360;BME280;66426;51.454;7.266;2023-04-30T01:00:46;100828.19;;;7.52;81.59
77360;BME280;66426;51.454;7.266;2023-04-30T01:01:48;100829.19;;;7.48;81.70
77360;BME280;66426;51.454;7.266;2023-04-30T01:02:49;100823.88;;;7.46;81.88
77360;BME280;66426;51.454;7.266;2023-04-30T01:03:51;100824.91;;;7.41;82.25
77360;BME280;66426;51.454;7.266;2023-04-30T01:04:52;100824.03;;;7.40;82.47
77360;BME280;66426;51.454;7.266;2023-04-30T01:05:54;100820.34;;;7.44;82.43
77360;BME280;66426;51.454;7.266;2023-04-30T01:06:55;100830.47;;;7.33;82.45
77360;BME280;66426;51.454;7.266;2023-04-30T01:07:56;100830.13;;;7.47;82.14
77360;BME280;66426;51.454;7.266;2023-04-30T01:08:57;100826.63;;;7.43;81.93
77360;BME280;66426;51.454;7.266;2023-04-30T01:09:58;100825.63;;;7.47;81.90
77360;BME280;66426;51.454;7.266;2023-04-30T01:11:09;100828.53;;;7.40;82.42
77360;BME280;66426;51.454;7.266;2023-04-30T01:12:17;100824.03;;;7.40;82.20
77360;BME280;66426;51.454;7.266;2023-04-30T01:13:28;100824.97;;;7.39;81.88
77360;BME280;66426;51.454;7.266;2023-04-30T01:14:37;100829.16;;;7.49;82.03
77360;BME280;66426;51.454;7.266;2023-04-30T01:15:44;100821.09;;;7.49;81.85
77360;BME280;66426;51.454;7.266;2023-04-30T01:16:51;100817.56;;;7.49;nan
77360;BME280;66426;51.454;7.266;2023-04-30T01:17:55;100817.72;;;7.41;81.94
77360;BME280;66426;51.454;7.266;2023-04-30T01:19:08;100814.91;;;7.47;81.95
77360;BME280;66426;51.454;7.266;2023-04-30T01:20:10;100815.84;;;7.46;81.81
77360;BME280;66426;51.454;7.266;2023-04-30T01:21:14;100820.38;;;7.43;81.91
77360;BME280;66426;51.454;7.266;2023-04-30T01:22:29;100823.16;;;7.40;81.78
77360;BME280;66426;51.454;7.266;2023-04-30T01:23:41;100815.75;;;7.49;81.70
77360;BME280;66426;51.454;7.266;2023-04-30T01:25:06;100815.91;;;7.43;81.77
77360;BME280;66426;51.454;7.266;2023-04-30T01:26:12;100823.78;;;7.49;81.66
77360;BME280;66426;51.454;7.266;2023-04-30T01:27:23;100814.38;;;7.33;82.24
77360;BME280;66426;51.454;7.266;2023-04-30T01:28:31;100820.81;;;7.27;82.09
77360;BME280;66426;51.454;7.266;2023-04-30T01:29:35;100830.59;;;7.28;82.18
77360;BME280;66426;51.454;7.266;2023-04-30T01:30:37;100819.00;;;7.28;82.28
77360;BME280;66426;51.454;7.266;2023-04-30T01:31:42;100819.81;;;7.31;82.37
77360;BME280;66426;51.454;7.266;2023-04-30T01:32:43;100822.53;;;7.28;82.63
77360;BME280;66426;51.454;7.266;2023-04-30T01:33:44;100825.09;;;7.34;82.28
77360;BME280;66426;51.454;7.266;2023-04-30T01:34:45;100818.91;;;7.31;82.27
77360;BME280;66426;51.454;7.266;2023-04-30T01:37:21;100821.28;;;7.09;83.04
77360;BME280;66426;51.454;7.266;2023-04-30T01:38:34;100819.44;;;6.75;84.31
77360;BME280;66426;51.454;7.266;2023-04-30T01:39:49;100815.63;;;6.85;84.52
77360;BME280;66426;51.454;7.266;2023-04-30T01:41:00;100821.78;;;6.89;84.12
77360;BME280;66426;51.454;7.266;2023-04-30T01:42:12;100822.91;;;6.79;84.49
77360;BME280;66426;51.454;7.266;2023-04-30T01:43:19;100814.63;;;6.89;84.07
77360;BME280;66426;51.454;7.266;2023-04-30T01:44:43;100818.19;;;6.90;83.78
77360;BME280;66426;51.454;7.266;2023-04-30T01:45:56;100821.44;;;7.03;83.21
77360;BME280;66426;51.454;7.266;2023-04-30T01:47:03;100817.50;;;7.16;83.01
77360;BME280;66426;51.454;7.266;2023-04-30T01:48:14;100824.66;;;7.17;82.69
77360;BME280;66426;51.454;7.266;2023-04-30T01:49:24;100823.59;;;7.23;82.33
77360;BME280;66426;51.454;7.266;2023-04-30T01:50:35;100823.59;;;7.23;82.30
77360;BME280;66426;51.454;7.266;2023-04-30T01:51:40;100818.84;;;7.34;82.31
77360;BME280;66426;51.454;7.266;2023-04-30T01:52:46;100822.75;;;7.21;82.41
77360;BME280;66426;51.454;7.266;2023-04-30T01:53:47;100819.88;;;7.28;82.13
77360;BME280;66426;51.454;7.266;2023-04-30T01:54:51;100826.19;;;7.26;82.13
77360;BME280;66426;51.454;7.266;2023-04-30T01:55:57;100828.16;;;7.19;82.17
77360;BME280;66426;51.454;7.266;2023-04-30T01:57:02;100823.69;;;7.20;82.31
77360;BME280;66426;51.454;7.266;2023-04-30T01:58:05;100828.00;;;7.25;82.66
77360;BME280;66426;51.454;7.266;2023-04-30T01:59:09;100818.34;;;7.18;82.55
77360;BME280;66426;51.454;7.266;2023-04-30T02:00:12;100821.16;;;7.13;82.95
77360;BME280;66426;51.454;7.266;2023-04-30T02:01:28;100811.38;;;7.11;82.61
77360;BME280;66426;51.454;7.266;2023-04-30T02:02:29;100819.50;;;7.08;82.97
77360;BME280;66426;51.454;7.266;2023-04-30T02:03:31;100824.03;;;7.06;82.75
77360;BME280;66426;51.454;7.266;2023-04-30T02:04:32;100827.31;;;7.17;82.42
77360;BME280;66426;51.454;7.266;2023-04-30T02:05:33;100824.69;;;7.16;82.69
77360;BME280;66426;51.454;7.266;2023-04-30T02:06:34;100823.81;;;7.15;82.58
77360;BME280;66426;51.454;7.266;2023-04-30T02:07:40;100817.38;;;7.22;82.42
77360;BME280;66426;51.454;7.266;2023-04-30T02:08:41;100824.53;;;7.22;82.04
77360;BME280;66426;51.454;7.266;2023-04-30T02:09:42;100823.72;;;7.18;82.49
77360;BME280;66426;51.454;7.266;2023-04-30T02:10:43;100828.97;;;6.87;83.50
77360;BME280;66426;51.454;7.266;2023-04-30T02:11:44;100828.69;;;6.99;83.86
77360;BME280;66426;51.454;7.266;2023-04-30T02:12:44;100818.22;;;6.88;84.14
77360;BME280;66426;51.454;7.266;2023-04-30T02:13:45;100829.66;;;6.95;83.55
77360;BME280;66426;51.454;7.266;2023-04-30T02:14:46;100826.34;;;6.84;84.21
77360;BME280;66426;51.454;7.266;2023-04-30T02:15:48;100824.94;;;7.06;83.53
77360;BME280;66426;51.454;7.266;2023-04-30T02:16:49;100829.34;;;7.09;83.15
77360;BME280;66426;51.454;7.266;2023-04-30T02:17:50;100826.72;;;7.06;83.16
77360;BME280;66426;51.454;7.266;2023-04-30T02:18:51;100828.41;;;7.10;83.02
77360;BME280;66426;51.454;7.266;2023-04-30T02:19:52;100823.03;;;7.10;83.15
77360;BME280;66426;51.454;7.266;2023-04-30T02:20:53;100831.94;;;7.12;82.81
77360;BME280;66426;51.454;7.266;2023-04-30T02:21:54;100831.00;;;7.13;83.26
77360;BME280;66426;51.454;7.266;2023-04-30T02:22:55;100835.69;;;7.05;82.92
77360;BME280;66426;51.454;7.266;2023-04-30T02:23:56;100830.44;;;7.00;83.66
77360;BME280;66426;51.454;7.266;2023-04-30T02:24:57;100830.34;;;7.03;83.58
77360;BME280;66426;51.454;7.266;2023-04-30T02:25:58;100827.72;;;7.02;83.40
77360;BME280;66426;51.454;7.266;2023-04-30T02:26:59;100835.75;;;7.02;83.56
77360;BME280;66426;51.454;7.266;2023-04-30T02:28:00;100831.66;;;6.87;83.96
77360;BME280;66426;51.454;7.266;2023-04-30T02:29:01;100830.66;;;6.91;84.49
77360;BME280;66426;51.454;7.266;2023-04-30T02:30:03;100836.63;;;7.02;83.81
77360;BME280;66426;51.454;7.266;2023-04-30T02:31:06;100836.53;;;7.07;83.19
77360;BME280;66426;51.454;7.266;2023-04-30T02:32:06;100831.19;;;7.05;83.10
77360;BME280;66426;51.454;7.266;2023-04-30T02:33:08;100838.19;;;7.11;82.86
77360;BME280;66426;51.454;7.266;2023-04-30T02:34:11;100832.00;;;7.09;83.06
77360;BME280;66426;51.454;7.266;2023-04-30T02:35:12;100840.06;;;7.07;82.80
77360;BME280;66426;51.454;7.266;2023-04-30T02:36:13;100837.47;;;7.04;82.98
77360;BME280;66426;51.454;7.266;2023-04-30T02:37:14;100834.84;;;7.01;82.78
77360;BME280;66426;51.454;7.266;2023-04-30T02:38:15;100824.59;;;6.83;83.78
77360;BME280;66426;51.454;7.266;2023-04-30T02:39:16;100833.53;;;6.83;83.87
77360;BME280;66426;51.454;7.266;2023-04-30T02:40:17;100827.09;;;6.90;83.98
77360;BME280;66426;51.454;7.266;2023-04-30T02:41:18;100834.34;;;6.87;83.40
77360;BME280;66426;51.454;7.266;2023-04-30T02:42:19;100827.06;;;6.92;83.55
77360;BME280;66426;51.454;7.266;2023-04-30T02:43:19;100827.22;;;6.86;84.04
77360;BME280;66426;51.454;7.266;2023-04-30T02:44:20;100833.31;;;6.93;84.44
77360;BME280;66426;51.454;7.266;2023-04-30T02:45:21;100836.06;;;6.89;83.87
77360;BME280;66426;51.454;7.266;2023-04-30T02:46:24;100839.53;;;6.93;83.72
77360;BME280;66426;51.454;7.266;2023-04-30T02:47:24;100834.81;;;7.03;83.64
77360;BME280;66426;51.454;7.266;2023-04-30T02:48:25;100839.63;;;6.88;84.02
77360;BME280;66426;51.454;7.266;2023-04-30T02:49:26;100832.84;;;6.74;85.15
77360;BME280;66426;51.454;7.266;2023-04-30T02:50:27;100834.72;;;6.72;85.56
77360;BME280;66426;51.454;7.266;2023-04-30T02:51:28;100832.75;;;6.78;84.80
77360;BME280;66426;51.454;7.266;2023-04-30T02:52:29;100829.84;;;6.89;84.22
77360;BME280;66426;51.454;7.266;2023-04-30T02:53:30;100833.53;;;6.83;84.79
77360;BME280;66426;51.454;7.266;2023-04-30T02:54:31;100834.22;;;6.91;84.35
77360;BME280;66426;51.454;7.266;2023-04-30T02:55:32;100834.19;;;6.93;84.14
77360;BME280;66426;51.454;7.266;2023-04-30T02:56:33;100835.50;;;6.75;84.84
77360;BME280;66426;51.454;7.266;2023-04-30T02:57:34;100826.31;;;6.87;84.71
77360;BME280;66426;51.454;7.266;2023-04-30T02:58:35;100828.44;;;6.73;85.15
77360;BME280;66426;51.454;7.266;2023-04-30T02:59:36;100826.91;;;6.62;86.00
77360;BME280;66426;51.454;7.266;2023-04-30T03:00:38;100831.84;;;6.40;87.02
77360;BME280;66426;51.454;7.266;2023-04-30T03:01:40;100828.34;;;6.38;87.53
77360;BME280;66426;51.454;7.266;2023-04-30T03:02:41;100837.13;;;6.43;87.62
77360;BME280;66426;51.454;7.266;2023-04-30T03:03:42;100836.28;;;6.41;87.34
77360;BME280;66426;51.454;7.266;2023-04-30T03:04:43;100835.69;;;6.29;87.86
77360;BME280;66426;51.454;7.266;2023-04-30T03:05:44;100832.22;;;6.25;88.54
77360;BME280;66426;51.454;7.266;2023-04-30T03:06:45;100837.28;;;6.37;88.43
77360;BME280;66426;51.454;7.266;2023-04-30T03:07:46;100832.81;;;6.38;88.06
77360;BME280;66426;51.454;7.266;2023-04-30T03:08:46;100829.34;;;6.33;88.10
77360;BME280;66426;51.454;7.266;2023-04-30T03:09:48;100827.53;;;6.35;88.12
77360;BME280;66426;51.454;7.266;2023-04-30T03:10:49;100828.34;;;6.38;87.84
77360;BME280;66426;51.454;7.266;2023-04-30T03:11:50;100829.34;;;6.33;87.51
77360;BME280;66426;51.454;7.266;2023-04-30T03:12:51;100827.63;;;6.32;87.98
77360;BME280;66426;51.454;7.266;2023-04-30T03:13:53;100827.75;;;6.24;88.06
77360;BME280;66426;51.454;7.266;2023-04-30T03:14:54;100822.47;;;6.21;88.15
77360;BME280;66426;51.454;7.266;2023-04-30T03:15:56;100823.47;;;6.17;88.44
77360;BME280;66426;51.454;7.266;2023-04-30T03:16:59;100826.28;;;6.11;88.60
77360;BME280;66426;51.454;7.266;2023-04-30T03:18:00;100824.47;;;6.11;88.65
77360;BME280;66426;51.454;7.266;2023-04-30T03:19:01;100827.38;;;6.02;89.00
77360;BME280;66426;51.454;7.266;2023-04-30T03:20:02;100830.06;;;6.00;89.09
77360;BME280;66426;51.454;7.266;2023-04-30T03:21:03;100832.63;;;6.05;89.15
77360;BME280;66426;51.454;7.266;2023-04-30T03:22:04;100827.28;;;6.07;88.95
77360;BME280;66426;51.454;7.266;2023-04-30T03:23:05;100831.81;;;6.01;89.01
77360;BME280;66426;51.454;7.266;2023-04-30T03:24:06;100829.88;;;6.10;89.02
77360;BME280;66426;51.454;7.266;2023-04-30T03:25:08;100830.75;;;6.10;88.65
77360;BME280;66426;51.454;7.266;2023-04-30T03:26:09;100824.59;;;6.07;88.68
77360;BME280;66426;51.454;7.266;2023-04-30T03:27:10;100828.25;;;6.02;88.79
77360;BME280;66426;51.454;7.266;2023-04-30T03:28:11;100826.41;;;6.04;89.12
77360;BME280;66426;51.454;7.266;2023-04-30T03:29:12;100820.97;;;6.09;88.92
77360;BME280;66426;51.454;7.266;2023-04-30T03:30:13;100831.88;;;5.98;89.22
77360;BME280;66426;51.454;7.266;2023-04-30T03:31:14;100824.84;;;5.94;89.29
77360;BME280;66426;51.454;7.266;2023-04-30T03:32:16;100827.38;;;6.00;89.16
77360;BME280;66426;51.454;7.266;2023-04-30T03:33:17;100819.06;;;6.14;88.86
77360;BME280;66426;51.454;7.266;2023-04-30T03:34:18;100818.69;;;6.31;88.14
77360;BME280;66426;51.454;7.266;2023-04-30T03:35:19;100822.09;;;6.38;87.18
77360;BME280;66426;51.454;7.266;2023-04-30T03:36:20;100825.53;;;6.44;85.88
77360;BME280;66426;51.454;7.266;2023-04-30T03:37:20;100818.34;;;6.46;85.98
77360;BME280;66426;51.454;7.266;2023-04-30T03:38:21;100815.63;;;6.48;85.02
77360;BME280;66426;51.454;7.266;2023-04-30T03:39:22;100819.03;;;6.55;84.65
77360;BME280;66426;51.454;7.266;2023-04-30T03:40:23;100815.50;;;6.54;84.56
77360;BME280;66426;51.454;7.266;2023-04-30T03:41:24;100816.13;;;6.64;84.16
77360;BME280;66426;51.454;7.266;2023-04-30T03:42:25;100819.00;;;6.56;84.07
77360;BME280;66426;51.454;7.266;2023-04-30T03:43:26;100812.69;;;6.59;84.01
77360;BME280;66426;51.454;7.266;2023-04-30T03:44:27;100815.22;;;6.65;83.77
77360;BME280;66426;51.454;7.266;2023-04-30T03:45:28;100819.41;;;6.39;84.47
77360;BME280;66426;51.454;7.266;2023-04-30T03:46:29;100821.50;;;6.25;85.02
77360;BME280;66426;51.454;7.266;2023-04-30T03:47:31;100820.34;;;6.37;85.36
77360;BME280;66426;51.454;7.266;2023-04-30T03:48:32;100818.63;;;6.34;85.17
77360;BME280;66426;51.454;7.266;2023-04-30T03:49:33;100814.28;;;6.29;85.73
77360;BME280;66426;51.454;7.266;2023-04-30T03:50:34;100819.59;;;6.30;85.52
77360;BME280;66426;51.454;7.266;2023-04-30T03:51:35;100817.53;;;6.43;85.12
77360;BME280;66426;51.454;7.266;2023-04-30T03:52:39;100819.03;;;6.55;84.87
77360;BME280;66426;51.454;7.266;2023-04-30T03:53:40;100818.19;;;6.53;84.35
77360;BME280;66426;51.454;7.266;2023-04-30T03:54:41;100811.03;;;6.53;84.40
77360;BME280;66426;51.454;7.266;2023-04-30T03:55:42;100818.38;;;6.45;84.52
77360;BME280;66426;51.454;7.266;2023-04-30T03:56:43;100818.34;;;6.46;84.14
77360;BME280;66426;51.454;7.266;2023-04-30T03:57:44;100814.88;;;6.41;85.02
77360;BME280;66426;51.454;7.266;2023-04-30T03:58:45;100820.13;;;6.46;84.81
77360;BME280;66426;51.454;7.266;2023-04-30T03:59:46;100818.44;;;6.42;84.93
77360;BME280;66426;51.454;7.266;2023-04-30T04:00:47;100817.50;;;6.44;84.85
77360;BME280;66426;51.454;7.266;2023-04-30T04:01:48;100825.34;;;6.52;84.58
77360;BME280;66426;51.454;7.266;2023-04-30T04:02:50;100824.78;;;6.38;84.53
77360;BME280;66426;51.454;7.266;2023-04-30T04:03:52;100818.38;;;6.45;84.80
77360;BME280;66426;51.454;7.266;2023-04-30T04:04:53;100821.06;;;6.45;84.64
77360;BME280;66426;51.454;7.266;2023-04-30T04:05:54;100821.94;;;6.44;84.74
77360;BME280;66426;51.454;7.266;2023-04-30T04:06:55;100823.81;;;6.42;84.71
77360;BME280;66426;51.454;7.266;2023-04-30T04:07:56;100818.47;;;6.40;84.78
77360;BME280;66426;51.454;7.266;2023-04-30T04:08:57;100826.31;;;6.50;84.69
77360;BME280;66426;51.454;7.266;2023-04-30T04:09:58;100826.13;;;6.57;84.12
77360;BME280;66426;51.454;7.266;2023-04-30T04:10:59;100828.25;;;6.41;84.43
77360;BME280;66426;51.454;7.266;2023-04-30T04:12:00;100830.31;;;6.30;85.04
77360;BME280;66426;51.454;7.266;2023-04-30T04:13:01;100832.03;;;6.33;85.12
77360;BME280;66426;51.454;7.266;2023-04-30T04:14:02;100835.66;;;6.30;85.00
77360;BME280;66426;51.454;7.266;2023-04-30T04:15:03;100828.31;;;6.40;85.19
77360;BME280;66426;51.454;7.266;2023-04-30T04:16:04;100830.06;;;6.41;84.93
77360;BME280;66426;51.454;7.266;2023-04-30T04:17:08;100839.41;;;6.21;85.20
77360;BME280;66426;51.454;7.266;2023-04-30T04:18:10;100840.56;;;6.10;86.13
77360;BME280;66426;51.454;7.266;2023-04-30T04:19:11;100845.84;;;6.13;86.02
77360;BME280;66426;51.454;7.266;2023-04-30T04:20:14;100851.38;;;6.05;86.38
77360;BME280;66426;51.454;7.266;2023-04-30T04:21:16;100841.63;;;6.02;87.36
77360;BME280;66426;51.454;7.266;2023-04-30T04:22:18;100843.66;;;6.32;87.30
77360;BME280;66426;51.454;7.266;2023-04-30T04:23:18;100847.91;;;6.42;86.23
77360;BME280;66426;51.454;7.266;2023-04-30T04:24:19;100840.75;;;6.41;85.99
77360;BME280;66426;51.454;7.266;2023-04-30T04:25:20;100844.72;;;6.23;86.21
77360;BME280;66426;51.454;7.266;2023-04-30T04:26:24;100843.53;;;6.36;85.88
77360;BME280;66426;51.454;7.266;2023-04-30T04:27:25;100848.53;;;6.11;87.28
77360;BME280;66426;51.454;7.266;2023-04-30T04:28:26;100846.78;;;6.10;87.96
77360;BME280;66426;51.454;7.266;2023-04-30T04:29:27;100845.84;;;6.13;87.92
77360;BME280;66426;51.454;7.266;2023-04-30T04:30:28;100840.56;;;6.10;87.83
77360;BME280;66426;51.454;7.266;2023-04-30T04:31:29;100854.03;;;6.07;88.18
77360;BME280;66426;51.454;7.266;2023-04-30T04:32:31;100843.41;;;6.02;88.49
77360;BME280;66426;51.454;7.266;2023-04-30T04:33:33;100845.91;;;6.10;88.77
77360;BME280;66426;51.454;7.266;2023-04-30T04:34:34;100845.41;;;6.33;87.54
77360;BME280;66426;51.454;7.266;2023-04-30T04:35:35;100850.56;;;6.42;86.83
77360;BME280;66426;51.454;7.266;2023-04-30T04:36:36;100841.53;;;6.46;86.26
77360;BME280;66426;51.454;7.266;2023-04-30T04:37:37;100846.38;;;6.29;86.96
77360;BME280;66426;51.454;7.266;2023-04-30T04:38:38;100838.25;;;6.35;86.27
77360;BME280;66426;51.454;7.266;2023-04-30T04:39:39;100846.53;;;6.22;86.90
77360;BME280;66426;51.454;7.266;2023-04-30T04:40:40;100848.53;;;6.13;87.81
77360;BME280;66426;51.454;7.266;2023-04-30T04:41:41;100846.72;;;6.13;88.40
77360;BME280;66426;51.454;7.266;2023-04-30T04:42:42;100841.97;;;6.28;88.09
77360;BME280;66426;51.454;7.266;2023-04-30T04:43:43;100841.19;;;6.21;87.87
77360;BME280;66426;51.454;7.266;2023-04-30T04:44:44;100844.97;;;6.12;88.29
77360;BME280;66426;51.454;7.266;2023-04-30T04:45:45;100842.31;;;6.11;88.80
77360;BME280;66426;51.454;7.266;2023-04-30T04:46:47;100846.19;;;5.97;89.00
77360;BME280;66426;51.454;7.266;2023-04-30T04:47:48;100841.78;;;5.95;89.56
77360;BME280;66426;51.454;7.266;2023-04-30T04:48:50;100845.31;;;5.97;89.61
77360;BME280;66426;51.454;7.266;2023-04-30T04:49:51;100843.53;;;5.96;89.60
77360;BME280;66426;51.454;7.266;2023-04-30T04:50:52;100846.19;;;5.96;89.33
77360;BME280;66426;51.454;7.266;2023-04-30T04:51:53;100843.72;;;5.83;89.98
77360;BME280;66426;51.454;7.266;2023-04-30T04:52:54;100845.56;;;5.81;89.92
77360;BME280;66426;51.454;7.266;2023-04-30T04:53:55;100849.09;;;5.83;90.14
77360;BME280;66426;51.454;7.266;2023-04-30T04:54:56;100854.31;;;5.90;89.95
77360;BME280;66426;51.454;7.266;2023-04-30T04:55:57;100852.69;;;5.82;90.02
77360;BME280;66426;51.454;7.266;2023-04-30T04:56:57;100851.81;;;5.82;90.49
77360;BME280;66426;51.454;7.266;2023-04-30T04:57:58;100845.53;;;5.84;90.43
77360;BME280;66426;51.454;7.266;2023-04-30T04:59:00;100849.94;;;5.86;90.16
77360;BME280;66426;51.454;7.266;2023-04-30T05:00:01;100854.19;;;5.97;90.04
77360;BME280;66426;51.454;7.266;2023-04-30T05:01:01;100854.19;;;5.97;90.04
77360;BME280;66426;51.454;7.266;2023-04-30T05:02:04;100853.41;;;5.91;90.32
77360;BME280;66426;51.454;7.266;2023-04-30T05:03:05;100851.28;;;6.10;90.10
77360;BME280;66426;51.454;7.266;2023-04-30T05:04:07;100846.53;;;6.22;89.35
77360;BME280;66426;51.454;7.266;2023-04-30T05:05:09;100851.56;;;6.36;88.30
77360;BME280;66426;51.454;7.266;2023-04-30T05:06:10;100850.47;;;6.46;87.27
77360;BME280;66426;51.454;7.266;2023-04-30T05:07:11;100855.97;;;6.39;87.16
77360;BME280;66426;51.454;7.266;2023-04-30T05:08:12;100850.50;;;6.45;86.75
77360;BME280;66426;51.454;7.266;2023-04-30T05:09:13;100850.50;;;6.45;86.86
77360;BME280;66426;51.454;7.266;2023-04-30T05:10:14;100856.47;;;6.56;87.23
77360;BME280;66426;51.454;7.266;2023-04-30T05:11:15;100855.59;;;6.56;87.17
77360;BME280;66426;51.454;7.266;2023-04-30T05:12:16;100855.50;;;6.60;86.87
77360;BME280;66426;51.454;7.266;2023-04-30T05:13:17;100854.34;;;6.72;86.82
77360;BME280;66426;51.454;7.266;2023-04-30T05:14:18;100863.53;;;6.60;86.80
77360;BME280;66426;51.454;7.266;2023-04-30T05:15:20;100853.94;;;6.52;87.62
77360;BME280;66426;51.454;7.266;2023-04-30T05:16:21;100861.28;;;6.42;88.21
77360;BME280;66426;51.454;7.266;2023-04-30T05:17:22;100863.03;;;6.43;87.73
77360;BME280;66426;51.454;7.266;2023-04-30T05:18:23;100856.28;;;6.64;87.50
77360;BME280;66426;51.454;7.266;2023-04-30T05:19:25;100865.44;;;6.55;87.14
77360;BME280;66426;51.454;7.266;2023-04-30T05:20:26;100861.06;;;6.51;87.54
77360;BME280;66426;51.454;7.266;2023-04-30T05:21:27;100869.91;;;6.55;88.19
77360;BME280;66426;51.454;7.266;2023-04-30T05:22:29;100866.13;;;6.63;88.03
77360;BME280;66426;51.454;7.266;2023-04-30T05:23:31;100871.44;;;6.66;87.83
77360;BME280;66426;51.454;7.266;2023-04-30T05:24:32;100865.06;;;6.70;88.00
77360;BME280;66426;51.454;7.266;2023-04-30T05:25:34;100864.19;;;6.72;87.63
77360;BME280;66426;51.454;7.266;2023-04-30T05:26:35;100861.16;;;6.85;87.17
77360;BME280;66426;51.454;7.266;2023-04-30T05:27:36;100860.34;;;6.82;87.19
77360;BME280;66426;51.454;7.266;2023-04-30T05:28:37;100868.41;;;6.82;87.02
77360;BME280;66426;51.454;7.266;2023-04-30T05:29:38;100868.03;;;6.97;86.50
77360;BME280;66426;51.454;7.266;2023-04-30T05:30:39;100858.38;;;6.88;86.37